createdAt,value
2022-12-13T00:05:01.462Z,16.15
2022-12-13T00:10:04.326Z,13.45
2022-12-13T00:15:07.733Z,16.67
2022-12-13T00:20:10.480Z,17.33
2022-12-13T00:25:12.564Z,15.52
2022-12-13T00:30:14.517Z,16.88
2022-12-13T00:35:16.513Z,19.75
2022-12-13T00:40:18.455Z,13.68
2022-12-13T00:45:20.218Z,13.50
2022-12-13T00:50:21.949Z,15.13
2022-12-13T00:55:23.656Z,11.57
2022-12-13T01:00:25.768Z,12.73
2022-12-13T01:06:04.213Z,15.45
2022-12-13T01:10:49.464Z,12.35
2022-12-13T01:15:51.145Z,13.43
2022-12-13T01:21:01.899Z,13.82
2022-12-13T01:26:05.327Z,16.43
2022-12-13T01:31:09.857Z,15.57
2022-12-13T01:36:15.254Z,13.57
2022-12-13T01:41:20.122Z,13.57
2022-12-13T01:46:35.048Z,18.27
2022-12-13T01:51:47.017Z,13.83
2022-12-13T01:56:54.209Z,15.02
2022-12-13T02:02:03.736Z,16.67
2022-12-13T02:07:06.891Z,15.90
2022-12-13T02:12:08.854Z,15.00
2022-12-13T02:17:46.042Z,14.18
2022-12-13T02:23:05.775Z,14.55
2022-12-13T02:28:31.559Z,17.60
2022-12-13T02:34:04.441Z,15.10
2022-12-13T02:39:30.545Z,17.02
2022-12-13T02:44:46.833Z,15.48
2022-12-13T02:49:54.037Z,17.50
2022-12-13T02:55:36.279Z,17.13
2022-12-13T03:00:52.963Z,18.48
2022-12-13T03:06:33.895Z,14.47
2022-12-13T03:12:14.866Z,15.23
2022-12-13T03:17:18.659Z,14.73
2022-12-13T03:22:20.902Z,17.17
2022-12-13T03:27:22.682Z,16.17
2022-12-13T03:32:24.448Z,17.37
2022-12-13T03:37:26.260Z,14.23
2022-12-13T03:42:28.621Z,18.60
2022-12-13T03:47:30.369Z,15.88
2022-12-13T03:52:32.077Z,21.35
2022-12-13T03:57:33.862Z,21.48
2022-12-13T04:02:35.706Z,22.03
2022-12-13T04:07:37.494Z,24.95
2022-12-13T04:12:39.433Z,23.90
2022-12-13T04:17:41.198Z,25.15
2022-12-13T04:22:43.087Z,24.50
2022-12-13T04:27:45.679Z,24.43
2022-12-13T04:32:47.356Z,21.85
2022-12-13T04:37:49.059Z,23.08
2022-12-13T04:42:54.437Z,21.58
2022-12-13T04:47:56.403Z,20.30
2022-12-13T04:52:58.133Z,18.00
2022-12-13T04:57:59.860Z,17.48
2022-12-13T05:03:01.574Z,17.10
2022-12-13T05:08:03.489Z,18.10
2022-12-13T05:13:06.370Z,15.32
2022-12-13T05:18:09.459Z,17.47
2022-12-13T05:23:12.166Z,13.65
2022-12-13T05:28:27.893Z,14.32
2022-12-13T05:33:30.574Z,15.10
2022-12-13T05:38:32.426Z,17.53
2022-12-13T05:43:42.308Z,15.85
2022-12-13T05:48:45.421Z,16.35
2022-12-13T05:53:51.651Z,15.80
2022-12-13T05:58:55.047Z,17.37
2022-12-13T06:03:56.900Z,15.63
2022-12-13T06:08:59.705Z,14.55
2022-12-13T06:14:01.595Z,17.77
2022-12-13T06:19:04.807Z,15.02
2022-12-13T06:24:06.834Z,13.32
2022-12-13T06:29:08.680Z,16.02
2022-12-13T06:34:14.191Z,13.48
2022-12-13T06:39:17.456Z,16.60
2022-12-13T06:44:19.167Z,16.73
2022-12-13T06:49:20.875Z,15.05
2022-12-13T06:54:24.001Z,13.75
2022-12-13T06:59:25.773Z,15.70
2022-12-13T07:04:29.482Z,14.07
2022-12-13T07:09:33.597Z,14.45
2022-12-13T07:14:40.691Z,12.13
2022-12-13T07:19:43.600Z,16.45
2022-12-13T07:24:45.630Z,15.95
2022-12-13T07:29:47.426Z,13.83
2022-12-13T07:34:49.164Z,15.32
2022-12-13T07:39:50.901Z,14.33
2022-12-13T07:44:52.657Z,15.07
2022-12-13T07:49:54.386Z,15.57
2022-12-13T07:54:56.106Z,16.17
2022-12-13T07:59:57.939Z,18.60
2022-12-13T08:04:59.744Z,17.63
2022-12-13T08:10:21.392Z,17.23
2022-12-13T08:15:24.591Z,18.10
2022-12-13T08:20:26.379Z,19.25
2022-12-13T08:25:28.138Z,18.80
2022-12-13T08:30:31.841Z,18.15
2022-12-13T08:35:34.572Z,18.77
2022-12-13T08:40:36.954Z,14.80
2022-12-13T08:45:38.749Z,15.90
2022-12-13T08:50:40.496Z,16.75
2022-12-13T08:55:42.214Z,16.60
2022-12-13T09:00:43.996Z,14.00
2022-12-13T09:05:45.786Z,14.60
2022-12-13T09:10:56.667Z,16.80
2022-12-13T09:16:23.064Z,17.07
2022-12-13T09:21:31.321Z,17.17
2022-12-13T09:26:38.351Z,16.13
2022-12-13T09:31:40.774Z,16.80
2022-12-13T09:36:42.960Z,18.03
2022-12-13T09:41:49.383Z,16.52
2022-12-13T09:46:53.597Z,19.23
2022-12-13T09:52:10.970Z,19.60
2022-12-13T09:57:30.680Z,16.67
2022-12-13T10:02:56.776Z,16.10
2022-12-13T10:08:03.932Z,18.23
2022-12-13T10:13:39.414Z,17.63
2022-12-13T10:18:42.722Z,17.60
2022-12-13T10:24:22.869Z,20.45
2022-12-13T10:29:07.235Z,20.90
2022-12-13T10:34:25.178Z,19.38
2022-12-13T10:39:42.390Z,20.27
2022-12-13T10:44:44.585Z,20.55
2022-12-13T10:49:59.514Z,20.55
2022-12-13T10:55:26.192Z,19.10
2022-12-13T11:00:40.660Z,16.95
2022-12-13T11:05:42.484Z,19.02
2022-12-13T11:10:44.430Z,19.48
2022-12-13T11:15:46.324Z,22.20
2022-12-13T11:21:00.290Z,20.95
2022-12-13T11:26:11.122Z,20.67
2022-12-13T11:31:35.267Z,20.13
2022-12-13T11:36:52.657Z,21.57
2022-12-13T11:42:05.293Z,22.10
2022-12-13T11:47:17.971Z,24.73
2022-12-13T11:52:30.466Z,21.53
2022-12-13T11:57:44.287Z,19.48
2022-12-13T12:02:52.063Z,18.77
2022-12-13T12:08:31.701Z,19.25
2022-12-13T12:13:50.325Z,19.00
2022-12-13T12:18:53.703Z,19.40
2022-12-13T12:24:26.001Z,19.25
2022-12-13T12:29:56.563Z,17.65
2022-12-13T12:35:16.607Z,23.35
2022-12-13T12:41:15.745Z,19.03
2022-12-13T12:46:58.939Z,17.50
2022-12-13T12:52:00.506Z,19.83
2022-12-13T12:57:15.751Z,21.15
2022-12-13T13:02:27.152Z,18.27
2022-12-13T13:07:51.510Z,21.02
2022-12-13T13:13:11.432Z,22.23
2022-12-13T13:18:47.194Z,22.70
2022-12-13T13:24:09.539Z,20.90
2022-12-13T13:29:27.511Z,18.60
2022-12-13T13:34:41.066Z,21.60
2022-12-13T13:40:00.653Z,19.43
2022-12-13T13:45:24.466Z,22.27
2022-12-13T13:50:37.625Z,19.47
2022-12-13T13:55:42.451Z,19.17
2022-12-13T14:01:08.973Z,18.75
2022-12-13T14:06:29.129Z,20.80
2022-12-13T14:11:55.529Z,19.83
2022-12-13T14:17:18.843Z,20.30
2022-12-13T14:22:25.007Z,20.10
2022-12-13T14:27:35.303Z,21.33
2022-12-13T14:32:39.115Z,20.77
2022-12-13T14:37:41.077Z,22.45
2022-12-13T14:42:48.030Z,22.00
2022-12-13T14:47:50.417Z,23.55
2022-12-13T14:52:52.391Z,21.63
2022-12-13T14:57:56.044Z,21.70
2022-12-13T15:03:01.389Z,21.60
2022-12-13T15:08:10.891Z,23.38
2022-12-13T15:13:35.334Z,23.00
2022-12-13T15:18:37.577Z,22.57
2022-12-13T15:23:49.145Z,23.60
2022-12-13T15:28:56.613Z,20.75
2022-12-13T15:34:28.775Z,20.80
2022-12-13T15:39:37.670Z,17.97
2022-12-13T15:44:47.924Z,17.33
2022-12-13T15:49:59.576Z,20.52
2022-12-13T15:55:05.599Z,15.23
2022-12-13T16:00:18.541Z,17.80
2022-12-13T16:05:38.367Z,17.55
2022-12-13T16:10:40.191Z,18.37
2022-12-13T16:15:50.872Z,18.38
2022-12-13T16:20:52.918Z,17.40
2022-12-13T16:25:56.551Z,17.10
2022-12-13T16:31:12.092Z,17.88
2022-12-13T16:36:14.157Z,17.75
2022-12-13T16:41:15.946Z,18.63
2022-12-13T16:47:12.293Z,15.43
2022-12-13T16:51:42.482Z,17.58
2022-12-13T16:56:49.912Z,18.43
2022-12-13T17:01:52.339Z,18.30
2022-12-13T17:06:54.946Z,19.17
2022-12-13T17:11:57.193Z,15.77
2022-12-13T17:16:59.057Z,18.85
2022-12-13T17:22:00.872Z,18.17
2022-12-13T17:27:05.614Z,18.20
2022-12-13T17:32:07.456Z,18.98
2022-12-13T17:37:10.731Z,18.27
2022-12-13T17:42:12.683Z,18.35
2022-12-13T17:47:14.725Z,19.20
2022-12-13T17:52:16.432Z,20.75
2022-12-13T17:57:18.157Z,19.37
2022-12-13T18:02:19.972Z,21.20
2022-12-13T18:07:21.705Z,21.47
2022-12-13T18:12:23.419Z,20.25
2022-12-13T18:17:46.659Z,20.33
2022-12-13T18:22:51.358Z,22.10
2022-12-13T18:28:00.584Z,19.13
2022-12-13T18:33:03.447Z,22.63
2022-12-13T18:38:05.150Z,21.93
2022-12-13T18:43:06.974Z,26.00
2022-12-13T18:48:08.735Z,21.70
2022-12-13T18:53:10.456Z,22.83
2022-12-13T18:58:12.134Z,24.00
2022-12-13T19:03:15.063Z,22.27
2022-12-13T19:08:16.887Z,25.35
2022-12-13T19:13:18.692Z,24.13
2022-12-13T19:18:20.481Z,24.73
2022-12-13T19:23:22.242Z,23.38
2022-12-13T19:28:24.068Z,22.30
2022-12-13T19:33:26.098Z,24.17
2022-12-13T19:38:28.112Z,24.57
2022-12-13T19:43:31.704Z,23.15
2022-12-13T19:48:33.935Z,25.67
2022-12-13T19:53:37.054Z,22.97
2022-12-13T19:58:39.449Z,24.60
2022-12-13T20:03:43.404Z,26.63
2022-12-13T20:08:45.625Z,24.27
2022-12-13T20:13:48.735Z,24.17
2022-12-13T20:18:58.344Z,25.67
2022-12-13T20:24:00.082Z,23.97
2022-12-13T20:29:01.917Z,23.60
2022-12-13T20:34:06.035Z,25.60
2022-12-13T20:39:08.945Z,23.43
2022-12-13T20:44:12.440Z,23.33
2022-12-13T20:49:14.238Z,26.17
2022-12-13T20:54:15.956Z,25.40
2022-12-13T20:59:17.795Z,27.38
2022-12-13T21:04:19.497Z,27.00
2022-12-13T21:09:21.301Z,25.25
2022-12-13T21:14:27.890Z,22.17
2022-12-13T21:19:37.462Z,25.20
2022-12-13T21:24:40.996Z,26.52
2022-12-13T21:29:42.678Z,24.55
2022-12-13T21:34:44.482Z,25.67
2022-12-13T21:39:46.195Z,24.88
2022-12-13T21:44:47.898Z,24.73
2022-12-13T21:49:52.668Z,24.90
2022-12-13T21:55:15.146Z,25.88
2022-12-13T22:00:16.377Z,23.73
2022-12-13T22:05:18.251Z,26.38
2022-12-13T22:10:19.979Z,27.50
2022-12-13T22:15:22.826Z,24.40
2022-12-13T22:20:24.804Z,25.77
2022-12-13T22:25:26.541Z,24.65
2022-12-13T22:30:28.264Z,28.90
2022-12-13T22:35:30.061Z,25.65
2022-12-13T22:40:31.790Z,27.17
2022-12-13T22:45:33.604Z,26.10
2022-12-13T22:50:35.398Z,25.02
2022-12-13T22:55:37.170Z,28.30
2022-12-13T23:00:38.957Z,27.27
2022-12-13T23:05:40.767Z,27.10
2022-12-13T23:10:42.505Z,26.25
2022-12-13T23:15:49.122Z,25.65
2022-12-13T23:20:51.262Z,27.20
2022-12-13T23:25:54.909Z,24.63
2022-12-13T23:31:01.173Z,26.23
2022-12-13T23:36:09.556Z,26.17
2022-12-13T23:41:23.289Z,26.07
2022-12-13T23:46:30.956Z,26.58
2022-12-13T23:51:33.760Z,23.08
2022-12-13T23:56:35.459Z,23.57
